Time;durP1;ratioP1;P1;durP2;ratioP2;P2;SDS_P1;SDS_P2;PMS_P1;PMS_P2;Temp;Humidity;BMP_temperature;BMP_pressure;BME280_temperature;BME280_humidity;BME280_pressure;Samples;Min_cycle;Max_cycle;Signal;HPM_P1;HPM_P2
2024/04/25 00:02:14;;;;;;;8.77;3.65;;;;;;;14.73;69.33;98261.31;6300797;22;20066;-94
2024/04/25 00:04:40;;;;;;;6.93;3.28;;;;;;;14.64;69.66;98241.56;6300944;22;19991;-93
2024/04/25 00:07:08;;;;;;;7.30;3.30;;;;;;;14.72;69.47;98239.97;6341315;22;20067;-95
2024/04/25 00:09:35;;;;;;;4.15;3.13;;;;;;;14.83;69.81;98243.88;6340164;22;19991;-94
2024/04/25 00:12:00;;;;;;;8.32;3.67;;;;;;;14.73;69.59;98234.22;6299436;22;20395;-96
2024/04/25 00:14:26;;;;;;;11.35;3.35;;;;;;;14.63;70.16;98223.72;6299877;22;19992;-95
2024/04/25 00:16:51;;;;;;;6.43;3.58;;;;;;;14.71;70.15;98258.13;6340445;22;19995;-94
2024/04/25 00:19:17;;;;;;;5.93;3.30;;;;;;;14.62;70.31;98234.88;6300376;22;19992;-95
2024/04/25 00:21:44;;;;;;;5.72;3.20;;;;;;;14.55;70.17;98228.03;6300517;22;20006;-95
2024/04/25 00:24:11;;;;;;;7.40;3.40;;;;;;;14.70;71.03;98255.75;6301088;22;19994;-95
2024/04/25 00:26:37;;;;;;;8.35;3.45;;;;;;;14.57;70.79;98230.44;6300136;22;19991;-93
2024/04/25 00:29:10;;;;;;;7.05;3.95;;;;;;;14.49;71.28;98223.09;6308657;22;19999;-96
2024/04/25 00:31:36;;;;;;;8.50;3.70;;;;;;;14.57;71.96;98257.53;6338697;22;20071;-96
2024/04/25 00:34:02;;;;;;;9.88;3.75;;;;;;;14.49;72.48;98253.69;6302059;22;20007;-94
2024/04/25 00:36:30;;;;;;;7.70;3.45;;;;;;;14.24;73.09;98247.19;6300070;22;20003;-96
2024/04/25 00:38:56;;;;;;;6.13;4.05;;;;;;;14.23;73.51;98242.88;6300795;22;20036;-95
2024/04/25 00:41:22;;;;;;;5.72;4.00;;;;;;;14.24;73.57;98251.81;6302240;22;20039;-95
2024/04/25 00:44:17;;;;;;;6.70;4.43;;;;;;;14.21;73.67;98266.78;6302991;22;20007;-93
2024/04/25 00:47:16;;;;;;;;;;;;;;;;;;;;;
2024/04/25 00:49:43;;;;;;;8.98;3.95;;;;;;;14.12;74.04;98260.56;6349777;22;19996;-94
2024/04/25 00:52:10;;;;;;;6.85;3.78;;;;;;;13.96;73.89;98233.19;6301160;22;20373;-94
2024/04/25 00:54:36;;;;;;;5.40;3.60;;;;;;;14.04;73.91;98239.72;6342947;22;20007;-94
2024/04/25 00:57:02;;;;;;;4.63;3.50;;;;;;;14.03;74.18;98238.13;6302055;22;20011;-93
2024/04/25 00:59:28;;;;;;;6.68;3.88;;;;;;;13.99;74.36;98229.06;6301019;22;20006;-95
2024/04/25 01:01:54;;;;;;;9.25;4.10;;;;;;;14.00;74.62;98244.97;6302525;22;19995;-94
2024/04/25 01:04:31;;;;;;;5.78;3.95;;;;;;;14.03;74.64;98240.81;6302804;22;20423;-93
2024/04/25 01:06:57;;;;;;;7.93;4.18;;;;;;;13.94;74.40;98216.47;6343427;22;20027;-93
2024/04/25 01:09:22;;;;;;;8.30;4.05;;;;;;;14.01;74.86;98237.63;6301461;22;19999;-92
2024/04/25 01:11:48;;;;;;;8.13;4.30;;;;;;;13.83;75.14;98210.59;6301468;22;20047;-95
2024/04/25 01:14:14;;;;;;;5.75;4.20;;;;;;;13.81;75.20;98218.22;6302143;22;20401;-94
2024/04/25 01:16:39;;;;;;;9.52;3.97;;;;;;;13.85;75.32;98213.78;6302646;22;19995;-94
2024/04/25 01:19:05;;;;;;;7.78;4.25;;;;;;;13.80;75.18;98203.13;6301520;22;20007;-94
2024/04/25 01:21:31;;;;;;;10.02;4.40;;;;;;;13.96;75.14;98225.06;6300900;22;19995;-92
2024/04/25 01:23:58;;;;;;;11.32;4.05;;;;;;;13.78;75.54;98209.94;6300934;22;20071;-93
2024/04/25 01:26:24;;;;;;;6.07;3.80;;;;;;;13.54;76.23;98203.88;6342947;22;20027;-96
2024/04/25 01:28:50;;;;;;;7.18;4.20;;;;;;;13.55;76.08;98212.81;6302283;22;19991;-95
2024/04/25 01:31:16;;;;;;;7.03;4.20;;;;;;;13.56;76.58;98219.00;6302590;22;20003;-94
2024/04/25 01:33:41;;;;;;;7.97;4.10;;;;;;;13.45;76.54;98197.69;6301595;22;19995;-95
2024/04/25 01:36:08;;;;;;;13.35;4.35;;;;;;;13.57;77.01;98215.97;6301600;22;20070;-95
2024/04/25 01:38:36;;;;;;;4.57;3.63;;;;;;;13.58;76.38;98219.50;6341292;22;20006;-96
2024/04/25 01:41:02;;;;;;;8.50;4.13;;;;;;;13.52;76.40;98219.63;6301183;22;20067;-94
2024/04/25 01:43:28;;;;;;;10.95;4.50;;;;;;;13.37;76.59;98208.50;6300667;22;20359;-93
2024/04/25 01:45:54;;;;;;;6.57;3.97;;;;;;;13.27;77.43;98213.03;6303320;22;20059;-93
2024/04/25 01:48:19;;;;;;;7.65;4.22;;;;;;;13.34;77.44;98226.13;6302760;22;20002;-95
2024/04/25 01:50:45;;;;;;;10.13;5.00;;;;;;;13.20;77.74;98206.50;6301191;22;20003;-95
2024/04/25 01:53:10;;;;;;;10.63;4.72;;;;;;;13.36;77.81;98234.72;6300670;22;19991;-95
2024/04/25 01:55:36;;;;;;;6.47;4.18;;;;;;;13.28;77.62;98224.63;6300962;22;19995;-93
2024/04/25 01:58:02;;;;;;;11.00;4.65;;;;;;;13.43;77.36;98245.88;6302459;22;20014;-94
2024/04/25 02:00:28;;;;;;;11.07;4.40;;;;;;;13.12;77.13;98213.47;6302265;22;20002;-92
2024/04/25 02:02:53;;;;;;;8.73;4.75;;;;;;;13.17;77.94;98217.94;6302015;22;20007;-94
2024/04/25 02:05:22;;;;;;;5.68;4.18;;;;;;;13.25;77.43;98225.28;6300512;22;20048;-94
2024/04/25 02:07:49;;;;;;;12.02;5.10;;;;;;;13.38;77.39;98242.50;6301567;22;20411;-93
2024/04/25 02:10:15;;;;;;;6.72;4.70;;;;;;;13.52;76.90;98252.09;6301736;22;20070;-94
2024/04/25 02:12:43;;;;;;;6.22;4.40;;;;;;;13.28;77.30;98217.34;6300654;22;20003;-93
2024/04/25 02:15:09;;;;;;;7.60;4.72;;;;;;;13.28;77.41;98222.75;6340446;22;19995;-93
2024/04/25 02:17:39;;;;;;;8.15;4.80;;;;;;;13.24;77.72;98229.06;6342097;22;20066;-93
2024/04/25 02:25:13;;;;;;;8.23;4.60;;;;;;;13.24;77.64;98215.56;6302329;22;20007;-94
2024/04/25 02:25:37;;;;;;;7.25;4.00;;;;;;;13.49;76.74;98243.81;6349488;22;20011;-95
2024/04/25 02:28:03;;;;;;;7.68;4.13;;;;;;;13.36;76.85;98220.41;6300598;22;19999;-93
2024/04/25 02:30:28;;;;;;;8.15;4.60;;;;;;;13.44;77.47;98246.66;6300403;22;19991;-95
2024/04/25 02:32:54;;;;;;;11.45;4.85;;;;;;;13.21;77.60;98224.31;6300354;22;20003;-94
2024/04/25 02:35:19;;;;;;;8.77;4.55;;;;;;;13.41;77.78;98256.22;6300367;22;19991;-94
2024/04/25 02:37:45;;;;;;;9.57;4.90;;;;;;;13.19;77.93;98229.22;6341132;22;19995;-94
2024/04/25 02:40:11;;;;;;;8.98;4.85;;;;;;;13.33;77.74;98246.16;6339948;22;20014;-92
2024/04/25 02:42:36;;;;;;;11.18;5.28;;;;;;;13.30;77.56;98242.19;6298798;22;20007;-95
2024/04/25 02:45:02;;;;;;;10.20;5.65;;;;;;;13.42;77.27;98240.78;6300688;22;19995;-94
2024/04/25 02:47:39;;;;;;;14.70;5.32;;;;;;;13.62;76.93;98263.72;6304291;22;20041;-94
2024/04/25 02:50:05;;;;;;;8.45;5.03;;;;;;;13.31;77.30;98226.75;6298999;22;19999;-94
2024/04/25 02:52:31;;;;;;;7.18;4.22;;;;;;;13.51;76.32;98236.97;6339863;22;20081;-94
2024/04/25 02:54:57;;;;;;;7.05;4.32;;;;;;;13.57;74.92;98232.19;6300562;22;19995;-94
2024/04/25 02:57:22;;;;;;;15.25;4.18;;;;;;;13.59;74.78;98224.56;6300331;22;20010;-94
2024/04/25 02:59:48;;;;;;;9.32;4.03;;;;;;;13.79;73.33;98239.38;6340467;22;19999;-95
2024/04/25 03:02:15;;;;;;;5.32;3.60;;;;;;;13.61;73.02;98216.94;6299876;22;19999;-96
2024/04/25 03:04:40;;;;;;;6.50;3.45;;;;;;;13.71;72.35;98224.75;6300552;22;20024;-94
2024/04/25 03:07:06;;;;;;;5.45;3.38;;;;;;;13.77;72.11;98238.91;6339840;22;19999;-94
2024/04/25 03:09:32;;;;;;;5.90;3.45;;;;;;;13.97;72.05;98251.03;6345948;22;20011;-95
2024/04/25 03:11:57;;;;;;;5.55;3.80;;;;;;;13.85;72.52;98237.34;6299203;22;20002;-95
2024/04/25 03:14:23;;;;;;;7.63;4.40;;;;;;;13.77;73.68;98233.50;6340757;22;20006;-94
2024/04/25 03:16:48;;;;;;;5.25;3.58;;;;;;;13.88;73.11;98259.16;6299565;22;20005;-95
2024/04/25 03:19:14;;;;;;;6.38;3.30;;;;;;;14.01;71.80;98253.88;6299989;22;20415;-94
2024/04/25 03:21:40;;;;;;;5.03;3.42;;;;;;;13.93;70.37;98247.38;6299565;22;19995;-95
2024/04/25 03:24:06;;;;;;;8.32;3.50;;;;;;;14.15;71.69;98271.56;6302189;22;20000;-94
2024/04/25 03:26:35;;;;;;;6.35;4.07;;;;;;;14.11;72.62;98276.03;6299045;22;20112;-94
2024/04/25 03:29:00;;;;;;;7.25;3.90;;;;;;;13.98;73.41;98268.06;6301518;22;19991;-96
2024/04/25 03:31:26;;;;;;;13.75;4.68;;;;;;;13.90;74.19;98273.16;6299903;22;20024;-94
2024/04/25 03:33:52;;;;;;;16.00;5.28;;;;;;;13.85;74.39;98281.41;6299911;22;19987;-96
2024/04/25 03:36:17;;;;;;;8.65;4.50;;;;;;;13.79;74.10;98255.63;6299172;22;19995;-94
2024/04/25 03:38:52;;;;;;;8.27;4.90;;;;;;;13.83;74.18;98250.38;6301059;22;20340;-93
2024/04/25 03:41:22;;;;;;;5.80;4.28;;;;;;;13.89;73.94;98268.84;6347549;22;20027;-95
2024/04/25 03:43:48;;;;;;;11.73;4.80;;;;;;;14.05;73.86;98280.00;6300921;22;19995;-96
2024/04/25 03:46:15;;;;;;;7.97;4.75;;;;;;;13.95;73.98;98259.47;6346927;22;20010;-93
2024/04/25 03:48:45;;;;;;;11.93;5.45;;;;;;;13.85;73.95;98248.94;6303197;22;20005;-95
2024/04/25 03:51:13;;;;;;;49.92;7.38;;;;;;;13.99;73.16;98264.25;6350460;22;19999;-96
2024/04/25 03:53:38;;;;;;;9.60;4.50;;;;;;;14.03;73.41;98262.47;6303238;22;20002;-93
2024/04/25 03:56:04;;;;;;;11.00;4.90;;;;;;;14.13;73.12;98265.69;6298933;22;20010;-93
2024/04/25 03:58:30;;;;;;;8.50;4.03;;;;;;;14.23;72.86;98271.88;6300528;22;19999;-94
2024/04/25 04:00:56;;;;;;;7.20;4.63;;;;;;;14.38;72.60;98284.94;6300595;22;19999;-95
2024/04/25 04:03:22;;;;;;;19.33;4.82;;;;;;;14.25;72.99;98259.59;6300781;22;19983;-95
2024/04/25 04:05:50;;;;;;;12.40;4.20;;;;;;;14.36;72.82;98265.50;6300910;22;19999;-95
2024/04/25 04:08:15;;;;;;;8.57;4.00;;;;;;;14.47;72.41;98274.88;6299779;22;20010;-96
2024/04/25 04:10:44;;;;;;;14.57;4.85;;;;;;;14.51;72.26;98280.47;6300428;22;19995;-95
2024/04/25 04:19:34;;;;;;;10.65;5.10;;;;;;;14.42;72.23;98291.31;6280999;22;20007;-94
2024/04/25 04:22:28;;;;;;;10.30;4.95;;;;;;;14.42;72.42;98287.78;6260453;22;20068;-96
2024/04/25 04:24:55;;;;;;;9.13;4.00;;;;;;;14.46;72.39;98288.72;6304111;22;20003;-96
2024/04/25 04:27:21;;;;;;;8.80;4.00;;;;;;;14.42;72.04;98283.19;6255673;22;20287;-94
2024/04/25 04:30:10;;;;;;;8.15;4.20;;;;;;;14.43;71.63;98278.56;6254509;22;20066;-94
2024/04/25 04:32:35;;;;;;;10.48;4.20;;;;;;;14.56;71.83;98285.72;6152079;23;20002;-95
2024/04/25 04:35:04;;;;;;;9.85;4.15;;;;;;;14.79;71.22;98310.69;6113568;23;20421;-93
2024/04/25 04:37:32;;;;;;;8.48;3.90;;;;;;;14.61;71.66;98277.44;6113494;23;20403;-94
2024/04/25 04:39:58;;;;;;;12.30;7.63;;;;;;;14.64;72.10;98286.84;6112615;23;20335;-92
2024/04/25 04:42:23;;;;;;;8.82;4.25;;;;;;;14.92;71.69;98304.31;6110649;23;19994;-92
2024/04/25 04:44:49;;;;;;;7.10;4.07;;;;;;;14.84;71.97;98282.66;6106658;23;19994;-91
2024/04/25 04:47:15;;;;;;;10.05;4.10;;;;;;;14.71;72.06;98273.56;6111451;23;20294;-92
2024/04/25 04:49:41;;;;;;;12.15;4.00;;;;;;;14.83;72.27;98294.59;6114490;23;19994;-94
2024/04/25 04:52:07;;;;;;;10.20;6.03;;;;;;;14.69;72.71;98287.47;6118523;23;20081;-94
2024/04/25 04:54:35;;;;;;;10.82;4.50;;;;;;;14.74;72.80;98291.91;6120019;23;20075;-95
2024/04/25 04:57:21;;;;;;;8.02;4.13;;;;;;;14.81;72.60;98300.31;6118980;23;19998;-96
2024/04/25 04:59:49;;;;;;;10.57;4.53;;;;;;;14.78;72.64;98294.78;6158051;23;20859;-94
2024/04/25 05:02:19;;;;;;;11.65;5.47;;;;;;;14.84;72.82;98307.03;6116952;23;20006;-95
2024/04/25 05:05:02;;;;;;;10.07;4.20;;;;;;;14.60;73.08;98285.88;6256450;22;19996;-96
2024/04/25 05:07:28;;;;;;;45.35;23.40;;;;;;;14.76;73.25;98314.06;6260372;22;20007;-95
2024/04/25 05:10:05;;;;;;;8.20;4.40;;;;;;;14.72;72.51;98294.94;6257972;22;20000;-96
2024/04/25 05:12:55;;;;;;;10.35;4.40;;;;;;;14.82;72.04;98307.34;6296606;22;19988;-92
2024/04/25 05:15:26;;;;;;;8.57;4.55;;;;;;;14.91;70.01;98318.16;6299628;22;20387;-96
2024/04/25 05:17:53;;;;;;;8.40;3.95;;;;;;;14.84;68.67;98315.97;6296522;22;20020;-95
2024/04/25 05:20:19;;;;;;;6.22;3.50;;;;;;;14.63;67.58;98305.00;6258604;22;19996;-96
2024/04/25 05:22:45;;;;;;;7.32;3.53;;;;;;;14.77;67.02;98328.41;6257156;22;20006;-94
2024/04/25 05:25:11;;;;;;;7.05;3.45;;;;;;;14.73;66.79;98342.59;6260290;22;19996;-95
2024/04/25 05:27:42;;;;;;;8.75;4.25;;;;;;;14.63;65.79;98326.69;6256723;22;20449;-95
2024/04/25 05:30:11;;;;;;;8.45;4.72;;;;;;;14.78;65.21;98348.97;6257963;22;20007;-95
2024/04/25 05:32:36;;;;;;;11.98;3.10;;;;;;;14.70;64.99;98326.19;6265479;22;19992;-96
2024/04/25 05:35:47;;;;;;;;;;;;;;;;;;;;;
2024/04/25 05:45:26;;;;;;;5.30;2.90;;;;;;;14.85;64.66;98354.69;6106313;23;20007;-96
2024/04/25 05:47:57;;;;;;;7.28;3.00;;;;;;;14.65;64.54;98316.31;6010411;23;20095;-95
2024/04/25 05:51:09;;;;;;;6.68;3.50;;;;;;;14.80;64.51;98330.47;5990066;23;20031;-93
2024/04/25 05:53:50;;;;;;;;;;;;;;;15.01;64.31;98358.50;6121085;23;19994;-95
2024/04/25 05:56:47;;;;;;;4.90;3.45;;;;;;;14.97;63.12;98368.38;6156079;23;19936;-92
2024/04/25 06:05:27;;;;;;;11.65;2.60;;;;;;;14.86;62.11;98334.63;6111004;23;19994;-93
2024/04/25 06:08:10;;;;;;;5.57;2.47;;;;;;;15.00;61.44;98345.25;6188535;22;19997;-92
2024/04/25 06:10:59;;;;;;;7.90;2.70;;;;;;;14.99;61.01;98333.63;6259574;22;20079;-92
2024/04/25 06:13:28;;;;;;;6.97;2.00;;;;;;;15.03;60.72;98350.81;6294370;22;20023;-95
2024/04/25 06:15:59;;;;;;;7.65;2.40;;;;;;;14.94;61.08;98336.47;6296518;22;19996;-94
2024/04/25 06:18:25;;;;;;;9.60;2.33;;;;;;;14.85;61.02;98322.97;6257003;22;19995;-93
2024/04/25 06:21:08;;;;;;;15.48;9.50;;;;;;;14.92;60.51;98333.31;6258025;22;20004;-93
2024/04/25 06:23:34;;;;;;;20.63;14.75;;;;;;;15.05;60.45;98348.59;6257193;22;20384;-91
2024/04/25 06:26:31;;;;;;;7.43;2.85;;;;;;;15.03;60.17;98342.69;6256911;22;19996;-96
2024/04/25 06:29:30;;;;;;;;;;;;;;;;;;;;;
2024/04/25 06:32:44;;;;;;;4.80;1.95;;;;;;;15.07;60.17;98346.34;6336705;22;20007;-94
2024/04/25 06:35:12;;;;;;;4.88;2.15;;;;;;;14.91;60.78;98342.56;6298289;22;20000;-94
2024/04/25 06:49:27;;;;;;;3.78;2.08;;;;;;;15.08;59.65;98358.78;6162046;22;20001;-93
2024/04/25 06:51:53;;;;;;;6.20;2.25;;;;;;;15.14;59.76;98349.34;6215524;22;19988;-92
2024/04/25 06:54:18;;;;;;;10.70;2.30;;;;;;;15.19;59.09;98353.81;6218776;22;19983;-94
2024/04/25 06:56:58;;;;;;;5.75;1.95;;;;;;;15.36;58.19;98353.75;6221668;22;19991;-95
2024/04/25 06:59:39;;;;;;;16.35;8.95;;;;;;;15.41;58.88;98366.34;6297786;22;19992;-93
2024/04/25 07:02:12;;;;;;;15.23;7.82;;;;;;;15.39;58.06;98359.66;6221217;22;20020;-96
2024/04/25 07:07:49;;;;;;;4.90;2.08;;;;;;;15.30;57.80;98363.19;6311743;22;20013;-94
2024/04/25 07:11:04;;;;;;;;;;;;;;;;;;;;;
2024/04/25 07:13:35;;;;;;;2.70;2.10;;;;;;;15.13;57.04;98353.19;6238780;22;19996;-96
2024/04/25 07:23:18;;;;;;;5.85;1.70;;;;;;;14.85;57.28;98379.09;6152217;22;20039;-94
2024/04/25 07:29:29;;;;;;;3.65;1.60;;;;;;;14.75;57.95;98405.41;5951978;24;19994;-96
2024/04/25 07:32:03;;;;;;;1.83;1.30;;;;;;;14.41;58.20;98381.00;6002326;23;20001;-95
2024/04/25 07:34:51;;;;;;;3.13;1.60;;;;;;;14.46;58.67;98405.19;6097238;23;19999;-96
2024/04/25 07:41:28;;;;;;;;;;;;;;;;;;;;;
2024/04/25 07:44:36;;;;;;;3.20;1.70;;;;;;;14.58;58.61;98399.19;6057546;23;19996;-93
2024/04/25 08:23:37;;;;;;;5.82;1.70;;;;;;;15.86;53.94;98401.13;6199491;22;20078;-95
2024/04/25 08:52:59;;;;;;;;;;;;;;;;;;;;;
2024/04/25 08:56:04;;;;;;;4.57;2.25;;;;;;;16.85;51.34;98401.75;6150800;23;19994;-95
2024/04/25 09:05:26;;;;;;;5.45;1.77;;;;;;;17.01;49.08;98380.94;6108104;23;20012;-96
2024/04/25 09:08:00;;;;;;;3.65;2.75;;;;;;;16.89;49.20;98372.75;6095173;22;20169;-94
2024/04/25 09:10:47;;;;;;;4.43;1.60;;;;;;;16.74;49.45;98366.78;6189526;22;19993;-96
2024/04/25 09:17:19;;;;;;;4.45;2.47;;;;;;;16.81;50.51;98409.78;6111777;23;20025;-95
2024/04/25 09:20:28;;;;;;;;;;;;;;;;;;;;;
2024/04/25 09:23:11;;;;;;;4.38;1.85;;;;;;;16.61;50.33;98376.03;6158312;23;19991;-95
2024/04/25 10:34:30;;;;;;;2.35;1.67;;;;;;;17.82;46.52;98305.03;6296525;22;20005;-93
2024/04/25 10:37:12;;;;;;;5.25;1.83;;;;;;;17.56;47.42;98328.00;6166768;22;20004;-92
2024/04/25 10:40:16;;;;;;;;;;;;;;;;;;;;;
2024/04/25 10:43:28;;;;;;;2.95;1.67;;;;;;;16.93;49.91;98335.59;6254847;22;19996;-96
2024/04/25 11:01:30;;;;;;;;;;;;;;;;;;;;;
2024/04/25 11:15:26;;;;;;;;;;;;;;;;;;;;;
2024/04/25 11:18:03;;;;;;;2.10;1.70;;;;;;;14.83;55.17;98368.56;6247351;22;20001;-93
2024/04/25 11:20:52;;;;;;;3.92;1.55;;;;;;;14.81;55.32;98392.47;6176562;22;20365;-92
2024/04/25 11:23:23;;;;;;;2.50;1.83;;;;;;;14.80;56.19;98399.03;6184617;22;20037;-94
2024/04/25 11:26:25;;;;;;;;;;;;;;;;;;;;;
2024/04/25 11:29:27;;;;;;;;;;;;;;;;;;;;;
2024/04/25 11:39:13;;;;;;;2.90;1.58;;;;;;;14.32;59.00;98413.50;5847900;24;20006;-95
2024/04/25 11:42:06;;;;;;;6.40;2.70;;;;;;;14.26;61.03;98407.41;5969827;24;20002;-93
2024/04/25 11:45:44;;;;;;;;;;;;;;;;;;;;;
2024/04/25 12:00:58;;;;;;;3.45;2.50;;;;;;;13.41;68.76;98431.16;6296708;21;20020;-95
2024/04/25 12:03:52;;;;;;;7.50;3.33;;;;;;;13.01;70.90;98404.00;6215196;22;19997;-94
2024/04/25 12:48:36;;;;;;;6.32;2.42;;;;;;;13.05;73.46;98411.22;6107067;23;19991;-96
2024/04/25 12:55:10;;;;;;;3.90;2.28;;;;;;;12.76;70.31;98391.94;5992233;23;20022;-96
2024/04/25 13:04:06;;;;;;;2.72;2.10;;;;;;;12.66;71.60;98393.78;6311244;22;20776;-96
2024/04/25 13:21:05;;;;;;;8.07;3.05;;;;;;;12.66;76.42;98460.50;6068859;23;20042;-96
2024/04/25 14:16:02;;;;;;;5.95;4.57;;;;;;;13.09;75.75;98385.19;6229469;22;21036;-95
2024/04/25 14:32:16;;;;;;;7.05;3.50;;;;;;;13.20;74.42;98383.00;6026711;23;20007;-94
2024/04/25 14:34:44;;;;;;;4.18;3.20;;;;;;;13.14;73.43;98360.72;6060576;23;20020;-95
2024/04/25 14:37:13;;;;;;;3.47;2.97;;;;;;;12.97;73.02;98354.41;6026211;23;20116;-95
2024/04/25 14:39:46;;;;;;;5.00;4.13;;;;;;;12.99;74.51;98357.59;6182584;22;20024;-95
2024/04/25 14:42:12;;;;;;;5.63;3.38;;;;;;;13.02;73.11;98352.38;6214973;22;20008;-94
2024/04/25 14:45:04;;;;;;;6.57;3.30;;;;;;;12.90;73.30;98360.25;6221329;22;19992;-96
2024/04/25 14:47:29;;;;;;;8.60;4.40;;;;;;;13.13;72.85;98388.03;6197580;23;20026;-94
2024/04/25 14:50:07;;;;;;;8.48;4.95;;;;;;;13.07;75.19;98365.78;6159671;23;20484;-94
2024/04/25 14:52:32;;;;;;;4.82;3.50;;;;;;;13.15;71.95;98375.00;6159955;23;19993;-95
2024/04/25 14:54:58;;;;;;;37.40;26.23;;;;;;;12.91;73.84;98368.03;6159252;23;19993;-94
2024/04/25 14:57:24;;;;;;;10.82;7.93;;;;;;;12.96;75.84;98380.63;6160807;23;19990;-95
2024/04/25 14:59:50;;;;;;;5.68;4.45;;;;;;;12.95;74.92;98392.56;6158582;23;19989;-94
2024/04/25 15:02:19;;;;;;;11.00;5.88;;;;;;;12.82;76.08;98385.31;6161795;23;20446;-94
2024/04/25 15:04:45;;;;;;;7.90;4.78;;;;;;;12.85;76.56;98385.50;6159439;23;19997;-95
2024/04/25 15:07:15;;;;;;;5.43;3.80;;;;;;;13.02;73.55;98392.13;6157438;23;20004;-94
2024/04/25 15:09:40;;;;;;;6.22;5.13;;;;;;;13.15;73.53;98420.97;6159534;23;20017;-95
2024/04/25 15:12:07;;;;;;;8.88;4.78;;;;;;;13.13;72.45;98423.97;6158660;23;20114;-96
2024/04/25 15:14:36;;;;;;;7.97;4.40;;;;;;;13.06;73.81;98407.41;6160928;23;19989;-93
2024/04/25 15:17:07;;;;;;;5.25;3.90;;;;;;;13.14;72.29;98409.34;6166164;22;19998;-96
2024/04/25 15:19:44;;;;;;;5.30;4.22;;;;;;;13.18;72.62;98398.72;6216323;22;20011;-94
2024/04/25 15:22:13;;;;;;;7.13;4.20;;;;;;;13.13;74.57;98407.75;6225529;22;20083;-94
2024/04/25 15:24:49;;;;;;;6.97;5.15;;;;;;;13.08;75.93;98405.19;6263978;22;19999;-96
2024/04/25 15:27:17;;;;;;;6.47;5.78;;;;;;;13.17;76.84;98426.06;6268264;22;19991;-94
2024/04/25 15:29:46;;;;;;;8.50;5.55;;;;;;;13.15;76.32;98399.34;6262842;22;20040;-94
2024/04/25 15:32:17;;;;;;;8.13;6.68;;;;;;;13.17;76.51;98401.75;6302109;22;19999;-94
2024/04/25 15:34:43;;;;;;;9.67;5.80;;;;;;;13.14;76.00;98398.53;6263315;22;19995;-96
2024/04/25 15:37:10;;;;;;;7.20;5.60;;;;;;;13.20;75.63;98420.84;6266213;22;20215;-95
2024/04/25 15:39:38;;;;;;;6.30;4.88;;;;;;;12.95;75.29;98411.47;6263055;22;20007;-93
2024/04/25 15:42:08;;;;;;;8.05;5.25;;;;;;;13.12;76.79;98449.41;6302883;22;19995;-94
2024/04/25 15:44:35;;;;;;;5.55;5.00;;;;;;;12.93;76.96;98429.91;6267589;22;20005;-96
2024/04/25 15:47:05;;;;;;;5.30;4.80;;;;;;;12.84;76.00;98429.00;6304671;22;20004;-94
2024/04/25 15:49:31;;;;;;;6.30;4.72;;;;;;;13.05;76.88;98467.97;6265802;22;19995;-95
2024/04/25 15:51:59;;;;;;;6.25;5.63;;;;;;;12.90;77.45;98436.69;6265538;22;20011;-95
2024/04/25 15:54:25;;;;;;;8.07;5.53;;;;;;;13.03;77.93;98480.16;6306221;22;20010;-95
2024/04/25 15:57:00;;;;;;;8.80;6.22;;;;;;;12.83;77.20;98430.94;6263519;22;19992;-95
2024/04/25 15:59:28;;;;;;;8.10;5.90;;;;;;;12.93;77.56;98435.28;6263381;22;20067;-94
2024/04/25 16:01:54;;;;;;;7.18;5.57;;;;;;;12.87;76.45;98434.59;6263957;22;20010;-95
2024/04/25 16:04:21;;;;;;;8.73;5.55;;;;;;;12.90;76.95;98435.91;6262759;22;19995;-93
2024/04/25 16:06:49;;;;;;;7.18;6.15;;;;;;;12.98;78.46;98464.09;6260711;22;20006;-94
2024/04/25 16:09:14;;;;;;;16.85;7.10;;;;;;;12.93;79.48;98473.13;6262741;22;19991;-94
2024/04/25 16:11:54;;;;;;;9.55;6.03;;;;;;;12.79;78.90;98458.88;6264750;22;19991;-96
2024/04/25 16:14:23;;;;;;;9.75;5.97;;;;;;;12.62;79.62;98446.00;6271712;22;20395;-93
2024/04/25 16:16:59;;;;;;;12.90;7.07;;;;;;;12.83;78.86;98473.34;6304531;22;19995;-94
2024/04/25 16:19:28;;;;;;;12.40;9.55;;;;;;;12.80;79.33;98468.53;6267537;22;20002;-96
2024/04/25 16:21:59;;;;;;;8.90;7.22;;;;;;;12.78;78.07;98462.66;6266505;22;19995;-95
2024/04/25 16:24:25;;;;;;;19.83;11.90;;;;;;;12.78;78.58;98468.84;6264690;22;19999;-94
2024/04/25 16:26:51;;;;;;;13.98;12.25;;;;;;;12.83;77.80;98486.88;6303314;22;20548;-92
2024/04/25 16:29:23;;;;;;;18.08;11.88;;;;;;;12.87;78.46;98506.75;6263846;22;19997;-94
2024/04/25 16:31:51;;;;;;;12.60;8.80;;;;;;;12.80;79.83;98522.56;6307812;22;20008;-94
2024/04/25 16:34:17;;;;;;;13.82;8.57;;;;;;;12.62;80.87;98538.63;6264311;22;19995;-94
2024/04/25 16:36:44;;;;;;;11.52;8.60;;;;;;;12.72;80.62;98543.81;6262872;22;20007;-94
2024/04/25 16:39:11;;;;;;;9.02;6.40;;;;;;;12.62;80.41;98519.72;6263874;22;19995;-95
2024/04/25 16:41:40;;;;;;;7.72;6.20;;;;;;;12.76;80.01;98538.59;6263206;22;20074;-94
2024/04/25 16:44:05;;;;;;;10.55;6.88;;;;;;;12.48;81.59;98498.13;6302504;22;20019;-94
2024/04/25 16:46:34;;;;;;;9.48;7.47;;;;;;;12.41;81.53;98516.66;6302809;22;20002;-94
2024/04/25 16:48:59;;;;;;;14.43;9.10;;;;;;;12.44;80.87;98507.94;6265211;22;19995;-94
2024/04/25 16:51:28;;;;;;;9.13;6.25;;;;;;;12.39;81.73;98496.44;6302761;22;20010;-94
2024/04/25 16:53:56;;;;;;;13.93;6.50;;;;;;;12.45;81.42;98511.44;6264292;22;20006;-96
2024/04/25 16:56:22;;;;;;;9.05;6.82;;;;;;;12.41;82.40;98500.44;6266129;22;20005;-95
2024/04/25 16:58:47;;;;;;;9.95;6.00;;;;;;;12.43;81.22;98511.75;6264004;22;20003;-96
2024/04/25 17:01:13;;;;;;;9.98;6.65;;;;;;;12.31;80.53;98520.34;6264236;22;20006;-95
2024/04/25 17:03:40;;;;;;;8.88;6.95;;;;;;;12.20;82.27;98504.66;6263237;22;19995;-95
2024/04/25 17:06:06;;;;;;;13.98;7.65;;;;;;;12.29;80.48;98500.97;6263301;22;20027;-95
2024/04/25 17:08:31;;;;;;;10.10;6.32;;;;;;;12.28;79.52;98447.25;6303737;22;20005;-96
2024/04/25 17:10:59;;;;;;;8.43;6.28;;;;;;;12.34;81.10;98446.84;6303237;22;19999;-95
2024/04/25 17:13:25;;;;;;;8.98;6.30;;;;;;;12.27;80.12;98416.00;6263353;22;19995;-95
2024/04/25 17:15:51;;;;;;;7.10;5.38;;;;;;;12.39;78.97;98467.56;6262854;22;20003;-96
2024/04/25 17:18:19;;;;;;;8.82;6.40;;;;;;;12.35;79.76;98469.25;6303436;22;20063;-95
2024/04/25 17:20:45;;;;;;;8.27;5.32;;;;;;;12.42;79.85;98487.75;6302919;22;20066;-96
2024/04/25 17:23:11;;;;;;;8.50;5.43;;;;;;;12.22;78.84;98467.38;6261712;22;19995;-96
2024/04/25 17:25:37;;;;;;;7.22;5.28;;;;;;;12.27;79.04;98481.56;6263354;22;20067;-96
2024/04/25 17:28:05;;;;;;;6.55;5.40;;;;;;;12.40;79.61;98516.94;6262543;22;20003;-93
2024/04/25 17:30:33;;;;;;;6.68;4.85;;;;;;;12.26;78.71;98496.16;6301784;22;19999;-93
2024/04/25 17:33:00;;;;;;;7.53;4.90;;;;;;;12.40;79.17;98546.66;6265628;22;20006;-94
2024/04/25 17:35:26;;;;;;;7.68;5.47;;;;;;;12.44;79.96;98547.66;6262437;22;20071;-93
2024/04/25 17:37:51;;;;;;;12.43;8.35;;;;;;;12.26;80.65;98517.75;6262120;22;20007;-95
2024/04/25 17:40:17;;;;;;;25.25;19.92;;;;;;;12.43;80.81;98535.22;6302476;22;20003;-94
2024/04/25 17:42:43;;;;;;;21.30;16.33;;;;;;;12.32;80.75;98507.66;6261936;22;20369;-95
2024/04/25 17:45:09;;;;;;;13.55;10.55;;;;;;;12.47;80.01;98512.75;6262266;22;19999;-93
2024/04/25 17:47:40;;;;;;;8.63;6.78;;;;;;;12.26;79.95;98479.16;6263651;22;20002;-95
2024/04/25 17:50:10;;;;;;;7.20;5.00;;;;;;;12.31;79.53;98531.16;6266283;22;20005;-96
2024/04/25 17:52:36;;;;;;;12.05;7.68;;;;;;;12.33;79.68;98561.34;6304189;22;20067;-93
2024/04/25 17:55:05;;;;;;;12.88;9.38;;;;;;;12.30;81.27;98570.03;6263480;22;20006;-94
2024/04/25 17:57:32;;;;;;;13.40;8.88;;;;;;;12.45;82.08;98565.44;6262997;22;20003;-94
2024/04/25 18:00:01;;;;;;;9.95;5.85;;;;;;;12.37;81.46;98521.06;6303558;22;20021;-94
2024/04/25 18:02:29;;;;;;;10.23;6.72;;;;;;;12.22;81.10;98473.59;6302212;22;20043;-95
2024/04/25 18:04:54;;;;;;;7.88;5.25;;;;;;;12.26;79.71;98541.25;6265091;22;19999;-94
2024/04/25 18:07:20;;;;;;;10.35;5.57;;;;;;;12.39;78.86;98594.44;6263215;22;20284;-94
2024/04/25 18:09:46;;;;;;;7.53;5.45;;;;;;;12.43;79.92;98594.63;6262907;22;20074;-93
2024/04/25 18:12:12;;;;;;;7.28;5.35;;;;;;;12.29;80.11;98570.34;6300926;22;19998;-91
2024/04/25 18:14:38;;;;;;;6.25;5.03;;;;;;;12.34;80.60;98575.63;6259892;22;19995;-90
2024/04/25 18:17:06;;;;;;;7.68;5.05;;;;;;;12.10;80.14;98533.44;6260044;22;20007;-90
2024/04/25 18:19:34;;;;;;;6.95;4.10;;;;;;;12.23;80.08;98549.94;6301438;22;19995;-89
2024/04/25 18:21:59;;;;;;;5.28;4.05;;;;;;;12.16;79.42;98561.16;6299815;22;19995;-92
2024/04/25 18:24:25;;;;;;;5.60;3.80;;;;;;;12.00;79.18;98554.44;6298829;22;20006;-92